Grimstrup, Denmark
Current Conditions -  °F | °C
As of 9:50 PM on Saturday 25 Oct 2014 (Local Time) from EKEB Reporting Station
Scattered Clouds Scattered Clouds  
Wind Chill: 54°   Ceiling: Unl
Heat Index: 54°   Visibility: 6mi
Dew Point: 48°   Wind: 9mph
Humidity: 82%   Direction: 220°SW
Pressure: 30"   Gusts: NA
Location:  55.53°N, 8.66°E
Report Text: EKEB 251950Z AUTO 22008KT 9999NDV FEW023/// SCT056///12/09 Q1016
Loading
Personal Weather Stations






























Interactive Weather Map New forecast layout! Learn more

10-Day Weather Forecast

Advertisements
Track Severe Weather on mobile